createdAt,value
2016-04-20T08:29:31.552Z,13.21
2016-04-20T08:30:31.539Z,12.85
2016-04-20T08:31:31.542Z,12.51
2016-04-20T08:32:31.529Z,12.24
2016-04-20T08:33:31.532Z,12.04
2016-04-20T08:34:31.519Z,12.2
2016-04-20T08:35:31.506Z,12.71
2016-04-20T08:36:31.509Z,12.96
2016-04-20T08:37:31.496Z,13.61
2016-04-20T08:38:31.482Z,13.88
2016-04-20T08:39:31.485Z,13.59
2016-04-20T08:40:31.473Z,13.4
2016-04-20T08:41:31.476Z,13.09
2016-04-20T08:42:31.509Z,12.82
2016-04-20T08:43:31.449Z,12.56
2016-04-20T08:44:31.452Z,12.37
2016-04-20T08:45:31.440Z,13.3
2016-04-20T08:46:31.442Z,13.46
2016-04-20T08:47:31.429Z,13.09
2016-04-20T08:48:31.417Z,13.07
2016-04-20T08:49:31.451Z,13.61
2016-04-20T08:50:31.406Z,14.86
2016-04-20T08:51:31.393Z,15.09
2016-04-20T08:52:31.442Z,13.95
2016-04-20T08:53:31.383Z,13.44
2016-04-20T08:54:31.386Z,13.03
2016-04-20T08:55:31.372Z,12.64
2016-04-20T08:56:31.359Z,12.38
2016-04-20T08:57:31.361Z,12.15
2016-04-20T08:58:31.350Z,11.99
2016-04-20T08:59:31.352Z,11.8
2016-04-20T09:00:31.339Z,11.78
2016-04-20T09:01:31.342Z,11.71
2016-04-20T09:02:31.344Z,11.68
2016-04-20T09:03:31.300Z,11.62
2016-04-20T09:04:31.318Z,11.97
2016-04-20T09:05:31.290Z,11.96
2016-04-20T09:06:31.292Z,12.88
2016-04-20T09:07:31.280Z,13.67
2016-04-20T09:08:31.282Z,13.27
2016-04-20T09:09:31.254Z,13.27
2016-04-20T09:10:31.257Z,12.99
2016-04-20T09:11:31.244Z,12.69
2016-04-20T09:12:31.246Z,12.49
2016-04-20T09:13:31.234Z,12.42
2016-04-20T09:14:31.221Z,12.19
2016-04-20T09:15:31.207Z,12.04
2016-04-20T09:16:31.195Z,11.93
2016-04-20T09:17:31.212Z,12.41
2016-04-20T09:18:31.200Z,12.26
2016-04-20T09:19:31.187Z,12.49
2016-04-20T09:20:31.190Z,13.07
2016-04-20T09:21:31.192Z,13.4
2016-04-20T09:22:30.850Z,13.27
2016-04-20T09:23:31.166Z,13.09
2016-04-20T09:24:31.153Z,13.09
2016-04-20T09:25:31.140Z,12.96
2016-04-20T09:26:31.127Z,12.82
2016-04-20T09:27:31.129Z,12.52
2016-04-20T09:28:31.116Z,12.52
2016-04-20T09:29:31.104Z,12.84
2016-04-20T09:30:31.091Z,12.63
2016-04-20T09:31:31.109Z,12.19
2016-04-20T09:32:31.080Z,12.06
2016-04-20T09:33:31.082Z,12.2
2016-04-20T09:34:31.070Z,12.59
2016-04-20T09:35:31.073Z,13.49
2016-04-20T09:36:31.044Z,14.52
2016-04-20T09:37:31.031Z,15.09
2016-04-20T09:38:31.049Z,15.13
2016-04-20T09:39:31.037Z,15.33
2016-04-20T09:40:31.023Z,15.33
2016-04-20T09:41:31.011Z,15.51
2016-04-20T09:42:30.998Z,14.94
2016-04-20T09:43:31.000Z,14.71
2016-04-20T09:44:30.987Z,14.44
2016-04-20T09:45:30.974Z,14.31
2016-04-20T09:46:30.977Z,13.83
2016-04-20T09:47:30.964Z,13.59
2016-04-20T09:48:30.967Z,13.3
2016-04-20T09:49:30.970Z,13
2016-04-20T09:50:30.941Z,12.97
2016-04-20T09:51:30.944Z,12.87
2016-04-20T09:52:30.946Z,12.81
2016-04-20T09:53:30.918Z,13.17
2016-04-20T09:54:30.921Z,13.59
2016-04-20T09:55:30.924Z,14.07
2016-04-20T09:56:30.926Z,14.32
2016-04-20T09:57:30.913Z,14.49
2016-04-20T09:58:30.885Z,14.94
2016-04-20T09:59:30.887Z,15.36
2016-04-20T10:00:30.874Z,15.74
2016-04-20T10:01:30.892Z,15.93
2016-04-20T10:02:30.864Z,16.33
2016-04-20T10:03:30.882Z,16.67
2016-04-20T10:04:30.853Z,17.08
2016-04-20T10:05:30.856Z,17.26
2016-04-20T10:06:30.859Z,17.55
2016-04-20T10:07:30.861Z,17.5
2016-04-20T10:08:31.051Z,17.81
2016-04-20T10:09:30.851Z,17.71
2016-04-20T10:10:30.854Z,17.78
2016-04-20T10:11:30.826Z,17.84
2016-04-20T10:12:30.828Z,17.54
2016-04-20T10:13:30.831Z,17.5
2016-04-20T10:14:30.818Z,17.53
2016-04-20T10:15:30.821Z,17.7
2016-04-20T10:16:30.823Z,17.78
2016-04-20T10:17:30.826Z,18
2016-04-20T10:18:30.814Z,18.36
2016-04-20T10:19:30.831Z,18.64
2016-04-20T10:20:30.803Z,18.7
2016-04-20T10:21:30.822Z,18.79
2016-04-20T10:22:30.808Z,18.54
2016-04-20T10:23:30.796Z,18.4
2016-04-20T10:24:30.799Z,18.64
2016-04-20T10:25:30.801Z,18.59
2016-04-20T10:26:30.804Z,18.7
2016-04-20T10:27:30.806Z,18.91
2016-04-20T10:28:30.793Z,18.92
2016-04-20T10:29:30.796Z,19.31
2016-04-20T10:30:30.799Z,19.02
2016-04-20T10:31:30.785Z,18.27
2016-04-20T10:32:30.804Z,18.12
2016-04-20T10:33:30.791Z,18.1
2016-04-20T10:34:30.794Z,18.29
2016-04-20T10:35:30.657Z,18.13
2016-04-20T10:36:30.799Z,18.21
2016-04-20T10:37:30.801Z,18.25
2016-04-20T10:38:30.789Z,18.49
2016-04-20T10:39:30.792Z,18.42
2016-04-20T10:40:30.809Z,17.85
2016-04-20T10:41:30.813Z,17.97
2016-04-20T10:42:30.800Z,17.79
2016-04-20T10:43:30.803Z,17.17
2016-04-20T10:44:30.805Z,17.33
2016-04-20T10:45:30.808Z,17.47
2016-04-20T10:46:30.811Z,18
2016-04-20T10:47:30.814Z,18.1
2016-04-20T10:48:30.816Z,18.18
2016-04-20T10:49:30.803Z,18.17
2016-04-20T10:50:30.821Z,18.31
2016-04-20T10:51:30.808Z,18.79
2016-04-20T10:52:30.827Z,18.82
2016-04-20T10:53:30.813Z,18.8
2016-04-20T10:54:30.816Z,18.61
2016-04-20T10:55:30.819Z,18.58
2016-04-20T10:56:30.822Z,18.65
2016-04-20T10:57:30.808Z,18.99
2016-04-20T10:58:30.811Z,18.98
2016-04-20T10:59:30.813Z,19.38
2016-04-20T11:00:30.832Z,18.4
2016-04-20T11:01:30.819Z,17.18
2016-04-20T11:02:30.838Z,17.53
2016-04-20T11:03:30.841Z,18.07
2016-04-20T11:04:30.859Z,18.4
2016-04-20T11:05:30.846Z,18.79
2016-04-20T11:06:30.848Z,19.1
2016-04-20T11:07:30.835Z,19.35
2016-04-20T11:08:30.854Z,19.17
2016-04-20T11:09:30.857Z,19.46
2016-04-20T11:10:30.875Z,19.68
2016-04-20T11:11:30.862Z,20.12
2016-04-20T11:12:30.865Z,20.09
2016-04-20T11:13:30.868Z,20.39
2016-04-20T11:14:30.886Z,20.61
2016-04-20T11:15:30.873Z,20.43
2016-04-20T11:16:30.891Z,20.43
2016-04-20T11:17:30.894Z,20.53
2016-04-20T11:18:30.897Z,20.89
2016-04-20T11:19:30.900Z,21.23
2016-04-20T11:20:31.262Z,21.26
2016-04-20T11:21:30.920Z,21.29
2016-04-20T11:22:32.267Z,21.32
2016-04-20T11:23:31.269Z,21.54
2016-04-20T11:24:30.944Z,21.83
2016-04-20T11:25:30.931Z,21.85
2016-04-20T11:26:30.933Z,21.81
2016-04-20T11:27:30.968Z,21.59
2016-04-20T11:28:30.954Z,21.5
2016-04-20T11:29:30.973Z,21.29
2016-04-20T11:30:30.960Z,21.53
2016-04-20T11:31:30.979Z,21.92
2016-04-20T11:32:30.982Z,21.48
2016-04-20T11:33:30.985Z,21.6
2016-04-20T11:34:31.002Z,21.79
2016-04-20T11:35:31.036Z,21.79
2016-04-20T11:36:31.007Z,21.59
2016-04-20T11:37:31.026Z,21.59
2016-04-20T11:38:31.044Z,21.61
2016-04-20T11:39:31.032Z,21.78
2016-04-20T11:40:31.049Z,21.74
2016-04-20T11:41:31.068Z,22.04
2016-04-20T11:42:31.070Z,22.28
2016-04-20T11:43:31.057Z,22.34
2016-04-20T11:44:31.091Z,22.67
2016-04-20T11:45:31.079Z,22.75
2016-04-20T11:46:31.081Z,21.64
2016-04-20T11:47:31.099Z,21.91
2016-04-20T11:48:31.103Z,21.59
2016-04-20T11:49:31.105Z,21.75
2016-04-20T11:50:31.076Z,21.9
2016-04-20T11:51:31.111Z,21.72
2016-04-20T11:52:31.113Z,22.06
2016-04-20T11:53:31.131Z,22.04
2016-04-20T11:54:31.119Z,22.19
2016-04-20T11:55:31.136Z,22.17
2016-04-20T11:56:31.139Z,22.19
2016-04-20T11:57:31.141Z,22.57
2016-04-20T11:58:31.160Z,22.89
2016-04-20T11:59:31.180Z,22.87
2016-04-20T12:00:31.166Z,22.46
2016-04-20T12:01:31.169Z,22.23
2016-04-20T12:02:31.187Z,22.49
2016-04-20T12:03:31.220Z,22.62
2016-04-20T12:04:31.176Z,22.84
2016-04-20T12:05:31.274Z,22.8
2016-04-20T12:06:31.198Z,23.02
2016-04-20T12:07:31.201Z,23.27
2016-04-20T12:08:31.499Z,23.31
2016-04-20T12:09:31.221Z,23.11
2016-04-20T12:10:31.208Z,23.19
2016-04-20T12:11:31.226Z,23.29
2016-04-20T12:12:31.511Z,23.11
2016-04-20T12:13:31.248Z,22.92
2016-04-20T12:14:31.235Z,22.9
2016-04-20T12:15:31.237Z,22.86
2016-04-20T12:16:31.255Z,22.87
2016-04-20T12:17:31.259Z,22.89
2016-04-20T12:18:31.262Z,22.75
2016-04-20T12:19:31.264Z,21.05
2016-04-20T12:20:31.548Z,19.55
2016-04-20T12:21:31.269Z,20
2016-04-20T12:22:31.272Z,20.51
2016-04-20T12:23:31.275Z,20.96
2016-04-20T12:24:31.292Z,21.35
2016-04-20T12:25:31.295Z,21.71
2016-04-20T12:26:31.297Z,22.19
2016-04-20T12:27:31.316Z,22.64
2016-04-20T12:28:31.319Z,22.96
2016-04-20T12:29:31.322Z,23.23
2016-04-20T12:30:31.324Z,23.55
2016-04-20T12:31:31.328Z,23.64
2016-04-20T12:32:31.329Z,23.7
2016-04-20T12:33:31.348Z,23.55
2016-04-20T12:34:31.335Z,23.86
2016-04-20T12:35:31.354Z,23.57
2016-04-20T12:36:31.357Z,23.55
2016-04-20T12:37:31.360Z,23.76
2016-04-20T12:38:31.362Z,23.61
2016-04-20T12:39:31.365Z,22.5
2016-04-20T12:40:31.368Z,22.67
2016-04-20T12:41:31.371Z,22.84
2016-04-20T12:42:31.388Z,22.93
2016-04-20T12:43:31.390Z,22.75
2016-04-20T12:44:31.440Z,22.87
2016-04-20T12:45:31.412Z,22.92
2016-04-20T12:46:31.399Z,22.69
2016-04-20T12:47:31.418Z,23.07
2016-04-20T12:48:31.264Z,23.46
2016-04-20T12:49:31.423Z,23.47
2016-04-20T12:50:31.425Z,23.46
2016-04-20T12:51:31.428Z,22.84
2016-04-20T12:52:31.431Z,23.08
2016-04-20T12:53:31.449Z,23.07
2016-04-20T12:54:31.452Z,23.04
2016-04-20T12:55:31.470Z,22.71
2016-04-20T12:56:31.458Z,22.77
2016-04-20T12:57:31.475Z,22.83
2016-04-20T12:58:31.463Z,23.11
2016-04-20T12:59:31.481Z,23.42
2016-04-20T13:00:31.514Z,23.71
2016-04-20T13:01:31.501Z,23.87
2016-04-20T13:02:31.488Z,24.05
2016-04-20T13:03:31.492Z,23.72
2016-04-20T13:04:31.494Z,23.97
2016-04-20T13:05:31.513Z,24.01
2016-04-20T13:06:31.499Z,24.08
2016-04-20T13:07:31.502Z,24.22
2016-04-20T13:08:31.505Z,23.76
2016-04-20T13:09:31.508Z,23.62
2016-04-20T13:10:31.526Z,23.46
2016-04-20T13:11:31.528Z,23.43
2016-04-20T13:12:31.562Z,23.53
2016-04-20T13:13:31.534Z,23.65
2016-04-20T13:14:31.537Z,23.89
2016-04-20T13:15:31.540Z,24.17
2016-04-20T13:16:31.542Z,23.5
2016-04-20T13:17:31.560Z,23.5
2016-04-20T13:18:31.548Z,23.61
2016-04-20T13:19:31.550Z,22.35
2016-04-20T13:20:31.584Z,21.11
2016-04-20T13:21:31.571Z,21.57
2016-04-20T13:22:31.573Z,21.76
2016-04-20T13:23:31.576Z,21.91
2016-04-20T13:24:31.578Z,22.13
2016-04-20T13:25:31.597Z,22.46
2016-04-20T13:26:31.584Z,22.75
2016-04-20T13:27:31.587Z,22.92
2016-04-20T13:28:31.622Z,23.14
2016-04-20T13:29:31.592Z,23.15
2016-04-20T13:30:31.595Z,22.97
2016-04-20T13:31:31.613Z,22.64
2016-04-20T13:32:31.617Z,22.89
2016-04-20T13:33:31.635Z,23.08
2016-04-20T13:34:31.638Z,23.29
2016-04-20T13:35:31.624Z,22.77
2016-04-20T13:36:31.627Z,22.82
2016-04-20T13:37:31.629Z,22.57
2016-04-20T13:38:31.633Z,22.74
2016-04-20T13:39:31.635Z,22.9
2016-04-20T13:40:31.638Z,22.89
2016-04-20T13:41:31.657Z,22.52
2016-04-20T13:42:31.659Z,22.77
2016-04-20T13:43:31.661Z,22.93
2016-04-20T13:44:31.649Z,23.31
2016-04-20T13:45:31.651Z,23.47
2016-04-20T13:46:31.654Z,23.58
2016-04-20T13:47:31.656Z,23.8
2016-04-20T13:48:31.660Z,23.55
2016-04-20T13:49:31.662Z,23.79
2016-04-20T13:50:31.665Z,23.89
2016-04-20T13:51:31.667Z,23.94
2016-04-20T13:52:31.671Z,22.82
2016-04-20T13:53:31.704Z,22.8
2016-04-20T13:54:31.675Z,22.74
2016-04-20T13:55:31.694Z,22.94
2016-04-20T13:56:31.681Z,22.87
2016-04-20T13:57:31.699Z,22.75
2016-04-20T13:58:31.765Z,22.84
2016-04-20T13:59:31.720Z,22.59
2016-04-20T14:00:31.708Z,22.77
2016-04-20T14:01:31.711Z,22.78
2016-04-20T14:02:31.713Z,22.86
2016-04-20T14:03:31.716Z,22.8
2016-04-20T14:04:31.718Z,22.78
2016-04-20T14:05:31.721Z,23.05
2016-04-20T14:06:31.738Z,22.64
2016-04-20T14:07:31.727Z,22.35
2016-04-20T14:08:31.932Z,21.64
2016-04-20T14:09:31.732Z,21.88
2016-04-20T14:10:31.750Z,22.02
2016-04-20T14:11:31.752Z,22.31
2016-04-20T14:12:31.740Z,22.09
2016-04-20T14:13:31.743Z,22.14
2016-04-20T14:14:31.746Z,21.63
2016-04-20T14:15:31.748Z,21.59
2016-04-20T14:16:31.593Z,21.85
2016-04-20T14:17:31.753Z,21.99
2016-04-20T14:18:31.740Z,22.28
2016-04-20T14:19:31.759Z,22.44
2016-04-20T14:20:31.746Z,22.65
2016-04-20T14:21:31.764Z,22.83
2016-04-20T14:22:31.752Z,22.97
2016-04-20T14:23:31.770Z,22.64
2016-04-20T14:24:31.773Z,22.12
2016-04-20T14:25:31.776Z,21.83
2016-04-20T14:26:31.779Z,21.88
2016-04-20T14:27:31.781Z,21.98
2016-04-20T14:28:31.768Z,22.01
2016-04-20T14:29:31.787Z,22.23
2016-04-20T14:30:31.790Z,22.09
2016-04-20T14:31:31.776Z,22.12
2016-04-20T14:32:31.778Z,22.16
2016-04-20T14:33:31.797Z,22.29
2016-04-20T14:34:31.784Z,21.54
2016-04-20T14:35:31.787Z,21.24
2016-04-20T14:36:31.789Z,21.02
2016-04-20T14:37:31.792Z,21.09
2016-04-20T14:38:31.795Z,21.38
2016-04-20T14:39:31.798Z,21.75
2016-04-20T14:40:31.800Z,21.75
2016-04-20T14:41:31.803Z,21.99
2016-04-20T14:42:31.790Z,21.78
2016-04-20T14:43:31.792Z,21.91
2016-04-20T14:44:31.795Z,21.67
2016-04-20T14:45:31.798Z,22.04
2016-04-20T14:46:31.833Z,21.98
2016-04-20T14:47:31.803Z,21.88
2016-04-20T14:48:31.806Z,21.99
2016-04-20T14:49:31.809Z,22.2
2016-04-20T14:50:31.811Z,22.25
2016-04-20T14:51:31.814Z,21.99
2016-04-20T14:52:32.191Z,21.51
2016-04-20T14:53:31.804Z,21.2
2016-04-20T14:54:31.807Z,21.44
2016-04-20T14:55:31.810Z,21.67
2016-04-20T14:56:31.812Z,21.38
2016-04-20T14:57:31.830Z,21.08
2016-04-20T14:58:31.818Z,21.04
2016-04-20T14:59:31.836Z,20.95
2016-04-20T15:00:31.823Z,20.8
2016-04-20T15:01:31.826Z,20.3
2016-04-20T15:02:31.828Z,20.28
2016-04-20T15:03:31.831Z,20.41
2016-04-20T15:04:31.817Z,20.83
2016-04-20T15:05:31.820Z,20.69
2016-04-20T15:06:31.839Z,20.96
2016-04-20T15:07:31.842Z,21.23
2016-04-20T15:08:31.829Z,21.13
2016-04-20T15:09:31.817Z,21.21
2016-04-20T15:10:31.819Z,21.27
2016-04-20T15:11:31.822Z,21.24
2016-04-20T15:12:31.824Z,21.32
2016-04-20T15:13:31.827Z,21.41
2016-04-20T15:14:31.829Z,21.32
2016-04-20T15:15:31.832Z,21.27
2016-04-20T15:16:31.819Z,21.36
2016-04-20T15:17:31.821Z,21.45
2016-04-20T15:18:31.824Z,21.54
2016-04-20T15:19:31.827Z,21.35
2016-04-20T15:20:31.830Z,21.08
2016-04-20T15:21:31.738Z,21.24
2016-04-20T15:22:31.819Z,21.23
2016-04-20T15:23:31.822Z,21.11
2016-04-20T15:24:31.840Z,21.08
2016-04-20T15:25:31.812Z,21.24
2016-04-20T15:26:31.830Z,21.24
2016-04-20T15:27:31.832Z,21.26
2016-04-20T15:28:31.836Z,21.23
2016-04-20T15:29:31.838Z,21.24
2016-04-20T15:30:31.810Z,21.05
2016-04-20T15:31:31.828Z,21.05
2016-04-20T15:32:31.815Z,21.21
2016-04-20T15:33:31.818Z,21.06
2016-04-20T15:34:31.820Z,21.02
2016-04-20T15:35:31.823Z,21.05
2016-04-20T15:36:31.877Z,21.09
2016-04-20T15:37:31.817Z,20.96
2016-04-20T15:38:31.820Z,21.02
2016-04-20T15:39:31.807Z,20.93
2016-04-20T15:40:31.811Z,20.96
2016-04-20T15:41:31.797Z,20.81
2016-04-20T15:42:31.816Z,20.89
2016-04-20T15:43:31.803Z,20.87
2016-04-20T15:44:31.790Z,20.72
2016-04-20T15:45:31.792Z,20.68
2016-04-20T15:46:31.795Z,20.59
2016-04-20T15:47:31.861Z,20.49
2016-04-20T15:48:31.786Z,20.5
2016-04-20T15:49:31.803Z,20.47
2016-04-20T15:50:31.791Z,20.41
2016-04-20T15:51:31.715Z,20.24
2016-04-20T15:52:31.780Z,20.31
2016-04-20T15:53:31.768Z,20.35
2016-04-20T15:54:31.770Z,20.42
2016-04-20T15:55:31.773Z,20.38
2016-04-20T15:56:31.775Z,20.54
2016-04-20T15:57:31.762Z,20.27
2016-04-20T15:58:31.802Z,20.25
2016-04-20T15:59:31.846Z,20.27
2016-04-20T16:00:31.735Z,20.3
2016-04-20T16:01:31.919Z,20.31
2016-04-20T16:02:31.963Z,20.23
2016-04-20T16:03:32.020Z,20.25
2016-04-20T16:04:31.924Z,20.23
2016-04-20T16:06:47.395Z,19.6
2016-04-20T16:07:00.020Z,19.54
2016-04-20T16:07:59.972Z,19.43
2016-04-20T16:09:00.089Z,19.58
2016-04-20T16:09:59.989Z,19.61
2016-04-20T16:10:59.980Z,19.8
2016-04-20T16:11:59.989Z,19.78
2016-04-20T16:12:59.995Z,19.72
2016-04-20T16:13:59.985Z,19.78
2016-04-20T16:15:00.005Z,19.98
2016-04-20T16:15:59.979Z,19.93
2016-04-20T16:16:59.982Z,19.87
2016-04-20T16:18:00.003Z,19.87
2016-04-20T16:18:59.991Z,19.75
2016-04-20T16:19:59.979Z,19.83
2016-04-20T16:20:59.983Z,19.66
2016-04-20T16:21:59.986Z,19.46
2016-04-20T16:22:59.974Z,19.08
2016-04-20T16:23:59.976Z,19.14
2016-04-20T16:24:59.963Z,19.08
2016-04-20T16:25:59.966Z,19.24
2016-04-20T16:26:59.969Z,19.29
2016-04-20T16:27:59.957Z,19.42
2016-04-20T16:28:59.975Z,19.65
2016-04-20T16:29:59.963Z,19.76
2016-04-20T16:30:59.950Z,19.72
2016-04-20T16:31:59.983Z,19.53
2016-04-20T16:32:59.955Z,19.75
2016-04-20T16:33:59.941Z,19.95
2016-04-20T16:34:59.944Z,20.16
2016-04-20T16:35:59.932Z,20.1
2016-04-20T16:36:59.934Z,19.95
2016-04-20T16:37:59.937Z,20.08
2016-04-20T16:38:59.940Z,20.18
2016-04-20T16:39:59.927Z,20.12
2016-04-20T16:40:59.914Z,20.1
2016-04-20T16:41:59.917Z,20
2016-04-20T16:42:59.920Z,19.98
2016-04-20T16:43:59.906Z,19.87
2016-04-20T16:44:59.956Z,19.7
2016-04-20T16:45:59.912Z,19.66
2016-04-20T16:46:59.914Z,19.42
2016-04-20T16:47:59.901Z,19.32
2016-04-20T16:48:59.904Z,18.91
2016-04-20T16:49:59.892Z,18.72
2016-04-20T16:50:59.895Z,18.64
2016-04-20T16:51:59.897Z,18.43
2016-04-20T16:52:59.900Z,18.46
2016-04-20T16:53:59.886Z,18.43
2016-04-20T16:54:59.873Z,18.44
2016-04-20T16:55:59.876Z,18.22
2016-04-20T16:56:59.863Z,18.19
2016-04-20T16:57:59.866Z,18.07
2016-04-20T16:58:59.869Z,17.84
2016-04-20T16:59:59.887Z,17.69
2016-04-20T17:00:59.858Z,17.55
2016-04-20T17:01:59.877Z,17.55
2016-04-20T17:02:59.848Z,17.54
2016-04-20T17:03:59.694Z,17.48
2016-04-20T17:04:59.854Z,17.51
2016-04-20T17:05:59.685Z,17.38
2016-04-20T17:06:59.671Z,17.35
2016-04-20T17:07:59.674Z,17.18
2016-04-20T17:08:59.849Z,17.2
2016-04-20T17:09:59.820Z,16.9
2016-04-20T17:10:59.823Z,16.95
2016-04-20T17:11:59.810Z,16.92
2016-04-20T17:12:59.813Z,16.81
2016-04-20T17:13:59.831Z,16.78
2016-04-20T17:14:59.787Z,16.75
2016-04-20T17:15:59.805Z,16.71
2016-04-20T17:16:59.793Z,16.7
2016-04-20T17:17:59.842Z,16.7
2016-04-20T17:19:00.047Z,16.62
2016-04-20T17:19:59.784Z,16.65
2016-04-20T17:20:59.787Z,16.55
2016-04-20T17:21:59.790Z,16.52
2016-04-20T17:22:59.762Z,16.5
2016-04-20T17:23:59.764Z,16.38
2016-04-20T17:24:59.751Z,16.4
2016-04-20T17:25:59.754Z,16.26
2016-04-20T17:26:59.772Z,16.27
2016-04-20T17:27:59.743Z,16.35
2016-04-20T17:28:59.746Z,16.26
2016-04-20T17:29:59.734Z,16.16
2016-04-20T17:30:59.736Z,16.18
2016-04-20T17:31:59.722Z,16.2
2016-04-20T17:32:59.711Z,16.11
2016-04-20T17:33:59.728Z,15.88
2016-04-20T17:34:59.716Z,15.94
2016-04-20T17:35:59.734Z,15.96
2016-04-20T17:36:59.752Z,15.82
2016-04-20T17:37:59.599Z,15.72
2016-04-20T17:38:59.710Z,15.68
2016-04-20T17:39:59.682Z,15.68
2016-04-20T17:40:59.685Z,15.6
2016-04-20T17:41:59.688Z,15.61
2016-04-20T17:42:59.660Z,15.54
2016-04-20T17:43:59.662Z,15.43
2016-04-20T17:44:59.649Z,15.35
2016-04-20T17:45:59.636Z,15.24
2016-04-20T17:46:59.638Z,15.11
2016-04-20T17:47:59.626Z,15.08
2016-04-20T17:48:59.628Z,14.98
2016-04-20T17:49:59.616Z,14.94
2016-04-20T17:50:59.618Z,14.95
2016-04-20T17:51:59.496Z,14.81
2016-04-20T17:52:59.608Z,14.65
2016-04-20T17:54:04.257Z,14.6
2016-04-20T17:54:59.573Z,14.67
2016-04-20T17:55:59.575Z,14.57
2016-04-20T17:56:59.624Z,14.49
2016-04-20T17:57:59.565Z,14.47
2016-04-20T17:58:59.551Z,14.46
2016-04-20T17:59:59.539Z,14.39
2016-04-20T18:00:59.556Z,14.47
2016-04-20T18:01:59.356Z,14.38
2016-04-20T18:02:59.515Z,14.32
2016-04-20T18:03:59.502Z,14.31
2016-04-20T18:04:59.521Z,14.24
2016-04-20T18:05:59.492Z,14.1
2016-04-20T18:06:59.493Z,14.12
2016-04-20T18:07:59.480Z,14.02
2016-04-20T18:08:59.499Z,13.98
2016-04-20T18:09:59.439Z,13.94
2016-04-20T18:10:59.441Z,13.83
2016-04-20T18:11:59.429Z,13.87
2016-04-20T18:12:59.853Z,13.89
2016-04-20T18:13:59.402Z,13.84
2016-04-20T18:14:59.421Z,13.79
2016-04-20T18:15:59.408Z,13.8
2016-04-20T18:16:59.380Z,13.81
2016-04-20T18:17:59.371Z,13.69
2016-04-20T18:18:59.357Z,13.63
2016-04-20T18:19:59.359Z,13.58
2016-04-20T18:20:59.348Z,13.46
2016-04-20T18:21:59.370Z,13.4
2016-04-20T18:22:59.326Z,13.41
2016-04-20T18:23:59.298Z,13.32
2016-04-20T18:24:59.300Z,13.3
2016-04-20T18:25:59.286Z,13.29
2016-04-20T18:26:59.275Z,13.14
2016-04-20T18:27:59.277Z,13.2
2016-04-20T18:28:59.264Z,13.2
2016-04-20T18:29:59.252Z,13.12
2016-04-20T18:30:59.222Z,13
2016-04-20T18:31:59.116Z,12.97
2016-04-20T18:32:59.213Z,12.92
2016-04-20T18:33:59.199Z,12.88
2016-04-20T18:34:59.218Z,12.89
2016-04-20T18:35:59.221Z,12.78
2016-04-20T18:36:59.052Z,12.69
2016-04-20T18:37:59.163Z,12.63
2016-04-20T18:38:59.151Z,12.52
2016-04-20T18:39:59.138Z,12.41
2016-04-20T18:40:58.969Z,12.49
2016-04-20T18:41:59.112Z,12.52
2016-04-20T18:42:59.115Z,12.37
2016-04-20T18:43:59.101Z,12.34
2016-04-20T18:44:59.073Z,12.23
2016-04-20T18:45:59.075Z,12.16
2016-04-20T18:46:59.063Z,12.16
2016-04-20T18:47:59.050Z,12.08
2016-04-20T18:48:59.068Z,12.08
2016-04-20T18:49:59.008Z,12.06
2016-04-20T18:50:59.011Z,11.97
2016-04-20T18:51:59.028Z,11.96
2016-04-20T18:52:58.985Z,11.96
2016-04-20T18:53:58.987Z,11.93
2016-04-20T18:54:58.975Z,11.68
2016-04-20T18:55:58.947Z,11.71
2016-04-20T18:56:58.933Z,11.61
2016-04-20T18:57:58.936Z,11.53
2016-04-20T18:58:58.767Z,11.49
2016-04-20T18:59:59.128Z,11.46
2016-04-20T19:00:58.898Z,11.44
2016-04-20T19:01:58.884Z,11.41
2016-04-20T19:02:58.871Z,11.35
2016-04-20T19:03:58.858Z,11.35
2016-04-20T19:04:58.846Z,11.27
2016-04-20T19:05:58.833Z,11.31
2016-04-20T19:06:58.836Z,11.2
2016-04-20T19:07:58.806Z,11.07
2016-04-20T19:08:58.793Z,11.13
2016-04-20T19:09:58.796Z,11.14
2016-04-20T19:10:58.768Z,10.99
2016-04-20T19:11:58.754Z,11.07
2016-04-20T19:12:58.743Z,10.95
2016-04-20T19:13:58.729Z,11.03
2016-04-20T19:14:58.716Z,11.03
2016-04-20T19:15:58.719Z,10.91
2016-04-20T19:16:58.690Z,10.96
2016-04-20T19:17:58.708Z,10.91
2016-04-20T19:18:58.664Z,10.96
2016-04-20T19:19:58.682Z,10.91
2016-04-20T19:20:58.639Z,10.88
2016-04-20T19:21:58.626Z,10.88
2016-04-20T19:22:58.612Z,10.8
2016-04-20T19:23:58.600Z,10.88
2016-04-20T19:24:58.602Z,10.78
2016-04-20T19:25:58.636Z,10.77
2016-04-20T19:26:58.561Z,10.83
2016-04-20T19:27:58.548Z,10.83
2016-04-20T19:28:58.535Z,10.81
2016-04-20T19:29:58.538Z,10.7
2016-04-20T19:30:58.353Z,10.76
2016-04-20T19:31:58.496Z,10.74
2016-04-20T19:32:58.500Z,10.6
2016-04-20T19:33:58.314Z,10.65
2016-04-20T19:34:58.457Z,10.52
2016-04-20T19:35:58.460Z,10.52
2016-04-20T19:36:58.275Z,10.46
2016-04-20T19:37:58.277Z,10.47
2016-04-20T19:38:58.406Z,10.43
2016-04-20T19:39:58.408Z,10.39
2016-04-20T19:40:58.380Z,10.28
2016-04-20T19:41:58.383Z,10.33
2016-04-20T19:42:58.369Z,10.25
2016-04-20T19:43:58.357Z,10.3
2016-04-20T19:44:58.328Z,10.26
2016-04-20T19:45:58.315Z,10.33
2016-04-20T19:46:58.302Z,10.21
2016-04-20T19:47:58.290Z,10.24
2016-04-20T19:48:58.276Z,10.19
2016-04-20T19:49:58.263Z,10.21
2016-04-20T19:50:58.251Z,10.21
2016-04-20T19:51:58.268Z,10.17
2016-04-20T19:52:58.084Z,10
2016-04-20T19:53:58.227Z,10.04
2016-04-20T19:54:58.198Z,10.01
2016-04-20T19:55:58.186Z,10.06
2016-04-20T19:56:58.173Z,10.06
2016-04-20T19:57:58.159Z,9.97
2016-04-20T19:58:58.147Z,10.03
2016-04-20T19:59:58.134Z,10.07
2016-04-20T20:00:58.122Z,10
2016-04-20T20:01:58.092Z,9.96
2016-04-20T20:02:58.080Z,9.97
2016-04-20T20:03:58.082Z,10
2016-04-20T20:04:58.070Z,9.89
2016-04-20T20:05:58.056Z,9.99
2016-04-20T20:06:58.028Z,9.89
2016-04-20T20:07:58.015Z,9.83
2016-04-20T20:08:58.205Z,9.81
2016-04-20T20:09:58.035Z,9.82
2016-04-20T20:10:57.976Z,9.78
2016-04-20T20:11:57.964Z,9.68
2016-04-20T20:12:57.949Z,9.75
2016-04-20T20:13:57.937Z,9.68
2016-04-20T20:14:57.940Z,9.66
2016-04-20T20:15:57.912Z,9.67
2016-04-20T20:16:57.883Z,9.56
2016-04-20T20:17:57.885Z,9.56
2016-04-20T20:18:57.857Z,9.56
2016-04-20T20:19:57.860Z,9.6
2016-04-20T20:20:57.831Z,9.57
2016-04-20T20:21:57.828Z,9.6
2016-04-20T20:22:57.651Z,9.52
2016-04-20T20:23:57.842Z,9.6
2016-04-20T20:24:57.797Z,9.57
2016-04-20T20:25:57.847Z,9.46
2016-04-20T20:26:57.755Z,9.45
2016-04-20T20:27:57.743Z,9.46
2016-04-20T20:28:57.730Z,9.35
2016-04-20T20:29:57.716Z,9.4
2016-04-20T20:30:57.705Z,9.4
2016-04-20T20:31:57.675Z,9.42
2016-04-20T20:32:57.663Z,9.49
2016-04-20T20:33:57.649Z,9.45
2016-04-20T20:34:57.636Z,9.4
2016-04-20T20:35:57.624Z,9.39
2016-04-20T20:36:57.673Z,9.43
2016-04-20T20:37:57.599Z,9.4
2016-04-20T20:38:57.585Z,9.42
2016-04-20T20:39:57.571Z,9.43
2016-04-20T20:40:57.543Z,9.43
2016-04-20T20:41:57.546Z,9.48
2016-04-20T20:42:57.532Z,9.42
2016-04-20T20:43:57.520Z,9.39
2016-04-20T20:44:57.523Z,9.38
2016-04-20T20:45:57.509Z,9.38
2016-04-20T20:46:57.466Z,9.28
2016-04-20T20:47:57.453Z,9.27
2016-04-20T20:48:57.455Z,9.28
2016-04-20T20:49:57.427Z,9.2
2016-04-20T20:50:57.445Z,9.23
2016-04-20T20:51:57.400Z,9.13
2016-04-20T20:52:57.403Z,9.12
2016-04-20T20:53:57.376Z,9.04
2016-04-20T20:54:57.362Z,9.04
2016-04-20T20:55:57.350Z,9.06
2016-04-20T20:56:57.320Z,9.02
2016-04-20T20:57:57.308Z,8.96
2016-04-20T20:58:57.294Z,8.88
2016-04-20T21:00:00.173Z,8.91
2016-04-20T21:00:57.269Z,8.75
2016-04-20T21:01:57.288Z,8.86
2016-04-20T21:02:57.244Z,8.86
2016-04-20T21:03:57.232Z,8.81
2016-04-20T21:04:57.203Z,8.69
2016-04-20T21:05:57.190Z,8.68
2016-04-20T21:06:57.176Z,8.79
2016-04-20T21:07:57.164Z,8.73
2016-04-20T21:08:57.150Z,8.68
2016-04-20T21:09:57.138Z,8.73
2016-04-20T21:10:57.126Z,8.62
2016-04-20T21:11:57.111Z,8.57
2016-04-20T21:12:57.146Z,8.53
2016-04-20T21:13:57.086Z,8.45
2016-04-20T21:14:57.073Z,8.4
2016-04-20T21:15:57.061Z,8.35
2016-04-20T21:16:57.063Z,8.48
2016-04-20T21:17:57.019Z,8.4
2016-04-20T21:18:56.991Z,8.48
2016-04-20T21:19:56.993Z,8.47
2016-04-20T21:20:56.964Z,8.54
2016-04-20T21:21:56.951Z,8.47
2016-04-20T21:22:56.938Z,8.5
2016-04-20T21:23:56.972Z,8.5
2016-04-20T21:24:56.913Z,8.5
2016-04-20T21:25:56.899Z,8.44
2016-04-20T21:26:56.887Z,8.45
2016-04-20T21:27:56.858Z,8.39